sensor_id;sensor_type;location;lat;lon;timestamp;pressure;altitude;pressure_sealevel;temperature;humidity
62418;BME280;48456;54.242;10.280;2023-02-04T00:00:55;102693.34;;;1.99;100.00
62418;BME280;48456;54.242;10.280;2023-02-04T00:03:21;102687.75;;;1.92;100.00
62418;BME280;48456;54.242;10.280;2023-02-04T00:05:47;102696.91;;;1.86;100.00
62418;BME280;48456;54.242;10.280;2023-02-04T00:08:14;102694.19;;;1.84;100.00
62418;BME280;48456;54.242;10.280;2023-02-04T00:10:40;102692.97;;;1.79;100.00
62418;BME280;48456;54.242;10.280;2023-02-04T00:13:06;102696.31;;;1.76;100.00
62418;BME280;48456;54.242;10.280;2023-02-04T00:15:33;102703.16;;;1.74;100.00
62418;BME280;48456;54.242;10.280;2023-02-04T00:17:59;102703.97;;;1.73;100.00
62418;BME280;48456;54.242;10.280;2023-02-04T00:20:26;102705.06;;;1.77;100.00
62418;BME280;48456;54.242;10.280;2023-02-04T00:22:52;102706.94;;;1.79;100.00
62418;BME280;48456;54.242;10.280;2023-02-04T00:25:18;102707.03;;;1.81;100.00
62418;BME280;48456;54.242;10.280;2023-02-04T00:27:45;102722.81;;;1.83;100.00
62418;BME280;48456;54.242;10.280;2023-02-04T00:30:11;102719.38;;;1.84;100.00
62418;BME280;48456;54.242;10.280;2023-02-04T00:32:38;102725.50;;;1.84;100.00
62418;BME280;48456;54.242;10.280;2023-02-04T00:35:04;102729.72;;;1.82;100.00
62418;BME280;48456;54.242;10.280;2023-02-04T00:37:31;102737.66;;;1.84;100.00
62418;BME280;48456;54.242;10.280;2023-02-04T00:39:57;102746.41;;;1.84;100.00
62418;BME280;48456;54.242;10.280;2023-02-04T00:42:23;102748.81;;;1.81;100.00
62418;BME280;48456;54.242;10.280;2023-02-04T00:44:50;102758.53;;;1.84;100.00
62418;BME280;48456;54.242;10.280;2023-02-04T00:47:16;102765.53;;;1.85;100.00
62418;BME280;48456;54.242;10.280;2023-02-04T00:49:42;102775.38;;;1.89;100.00
62418;BME280;48456;54.242;10.280;2023-02-04T00:52:09;102776.28;;;1.89;100.00
62418;BME280;48456;54.242;10.280;2023-02-04T00:54:35;102782.44;;;1.90;100.00
62418;BME280;48456;54.242;10.280;2023-02-04T00:57:01;102787.72;;;1.91;100.00
62418;BME280;48456;54.242;10.280;2023-02-04T00:59:28;102802.69;;;1.94;100.00
62418;BME280;48456;54.242;10.280;2023-02-04T01:01:54;102804.38;;;1.93;100.00
62418;BME280;48456;54.242;10.280;2023-02-04T01:04:20;102813.75;;;1.90;100.00
62418;BME280;48456;54.242;10.280;2023-02-04T01:06:47;102816.25;;;1.88;100.00
62418;BME280;48456;54.242;10.280;2023-02-04T01:09:13;102821.66;;;1.91;100.00
62418;BME280;48456;54.242;10.280;2023-02-04T01:11:39;102825.97;;;1.91;100.00
62418;BME280;48456;54.242;10.280;2023-02-04T01:14:06;102838.00;;;1.89;100.00
62418;BME280;48456;54.242;10.280;2023-02-04T01:16:32;102842.25;;;1.87;100.00
62418;BME280;48456;54.242;10.280;2023-02-04T01:18:59;102846.44;;;1.85;100.00
62418;BME280;48456;54.242;10.280;2023-02-04T01:21:25;102852.69;;;1.87;100.00
62418;BME280;48456;54.242;10.280;2023-02-04T01:23:52;102857.59;;;1.82;100.00
62418;BME280;48456;54.242;10.280;2023-02-04T01:26:18;102864.22;;;1.77;100.00
62418;BME280;48456;54.242;10.280;2023-02-04T01:28:44;102870.97;;;1.73;100.00
62418;BME280;48456;54.242;10.280;2023-02-04T01:31:11;102872.28;;;1.66;100.00
62418;BME280;48456;54.242;10.280;2023-02-04T01:33:38;102877.88;;;1.59;100.00
62418;BME280;48456;54.242;10.280;2023-02-04T01:36:04;102876.84;;;1.57;100.00
62418;BME280;48456;54.242;10.280;2023-02-04T01:38:31;102878.25;;;1.52;100.00
62418;BME280;48456;54.242;10.280;2023-02-04T01:40:57;102889.50;;;1.51;100.00
62418;BME280;48456;54.242;10.280;2023-02-04T01:43:24;102886.56;;;1.46;100.00
62418;BME280;48456;54.242;10.280;2023-02-04T01:45:50;102899.50;;;1.45;100.00
62418;BME280;48456;54.242;10.280;2023-02-04T01:48:17;102893.09;;;1.39;100.00
62418;BME280;48456;54.242;10.280;2023-02-04T01:50:49;102903.41;;;1.38;100.00
62418;BME280;48456;54.242;10.280;2023-02-04T01:53:17;102908.34;;;1.33;100.00
62418;BME280;48456;54.242;10.280;2023-02-04T01:55:45;102921.03;;;1.28;100.00
62418;BME280;48456;54.242;10.280;2023-02-04T01:58:12;102924.94;;;1.22;100.00
62418;BME280;48456;54.242;10.280;2023-02-04T02:00:38;102934.25;;;1.18;100.00
62418;BME280;48456;54.242;10.280;2023-02-04T02:03:05;102926.91;;;1.12;100.00
62418;BME280;48456;54.242;10.280;2023-02-04T02:05:36;102934.50;;;1.09;100.00
62418;BME280;48456;54.242;10.280;2023-02-04T02:08:04;102933.06;;;1.01;100.00
62418;BME280;48456;54.242;10.280;2023-02-04T02:10:30;102946.28;;;0.90;100.00
62418;BME280;48456;54.242;10.280;2023-02-04T02:12:58;102951.97;;;0.85;100.00
62418;BME280;48456;54.242;10.280;2023-02-04T02:15:24;102955.59;;;0.75;100.00
62418;BME280;48456;54.242;10.280;2023-02-04T02:17:51;102956.66;;;0.65;100.00
62418;BME280;48456;54.242;10.280;2023-02-04T02:20:19;102966.75;;;0.60;100.00
62418;BME280;48456;54.242;10.280;2023-02-04T02:25:31;102985.66;;;0.46;100.00
62418;BME280;48456;54.242;10.280;2023-02-04T02:27:58;102993.16;;;0.41;100.00
62418;BME280;48456;54.242;10.280;2023-02-04T02:30:26;103003.22;;;0.36;100.00
62418;BME280;48456;54.242;10.280;2023-02-04T02:32:53;103008.31;;;0.35;100.00
62418;BME280;48456;54.242;10.280;2023-02-04T02:35:20;103021.09;;;0.32;100.00
62418;BME280;48456;54.242;10.280;2023-02-04T02:37:46;103022.22;;;0.23;100.00
62418;BME280;48456;54.242;10.280;2023-02-04T02:40:12;103014.22;;;0.20;100.00
62418;BME280;48456;54.242;10.280;2023-02-04T02:42:40;103028.59;;;0.15;100.00
62418;BME280;48456;54.242;10.280;2023-02-04T02:45:10;103044.53;;;0.08;100.00
62418;BME280;48456;54.242;10.280;2023-02-04T02:47:38;103056.88;;;-0.02;100.00
62418;BME280;48456;54.242;10.280;2023-02-04T02:50:05;103045.72;;;-0.11;100.00
62418;BME280;48456;54.242;10.280;2023-02-04T02:52:31;103045.28;;;-0.17;100.00
62418;BME280;48456;54.242;10.280;2023-02-04T02:54:57;103048.06;;;-0.26;100.00
62418;BME280;48456;54.242;10.280;2023-02-04T02:57:24;103054.16;;;-0.37;100.00
62418;BME280;48456;54.242;10.280;2023-02-04T02:59:50;103049.03;;;-0.48;100.00
62418;BME280;48456;54.242;10.280;2023-02-04T03:02:21;103053.75;;;-0.54;100.00
62418;BME280;48456;54.242;10.280;2023-02-04T03:04:49;103058.00;;;-0.67;100.00
62418;BME280;48456;54.242;10.280;2023-02-04T03:07:17;103066.09;;;-0.74;100.00
62418;BME280;48456;54.242;10.280;2023-02-04T03:09:45;103054.31;;;-0.81;100.00
62418;BME280;48456;54.242;10.280;2023-02-04T03:12:11;103052.91;;;-0.87;100.00
62418;BME280;48456;54.242;10.280;2023-02-04T03:14:38;103071.78;;;-0.90;100.00
62418;BME280;48456;54.242;10.280;2023-02-04T03:17:05;103075.03;;;-0.93;100.00
62418;BME280;48456;54.242;10.280;2023-02-04T03:19:32;103081.03;;;-0.94;100.00
62418;BME280;48456;54.242;10.280;2023-02-04T03:22:01;103101.28;;;-0.89;100.00
62418;BME280;48456;54.242;10.280;2023-02-04T03:24:29;103099.56;;;-0.89;100.00
62418;BME280;48456;54.242;10.280;2023-02-04T03:26:55;103105.28;;;-0.93;100.00
62418;BME280;48456;54.242;10.280;2023-02-04T03:29:21;103103.91;;;-1.00;100.00
62418;BME280;48456;54.242;10.280;2023-02-04T03:31:48;103115.63;;;-1.05;100.00
62418;BME280;48456;54.242;10.280;2023-02-04T03:34:15;103122.63;;;-1.04;100.00
62418;BME280;48456;54.242;10.280;2023-02-04T03:36:41;103126.75;;;-0.96;100.00
62418;BME280;48456;54.242;10.280;2023-02-04T03:39:08;103130.75;;;-0.89;100.00
62418;BME280;48456;54.242;10.280;2023-02-04T03:41:34;103143.59;;;-0.80;100.00
62418;BME280;48456;54.242;10.280;2023-02-04T03:44:00;103150.84;;;-0.76;100.00
62418;BME280;48456;54.242;10.280;2023-02-04T03:46:26;103155.91;;;-0.77;100.00
62418;BME280;48456;54.242;10.280;2023-02-04T03:48:53;103167.09;;;-0.79;100.00
62418;BME280;48456;54.242;10.280;2023-02-04T03:51:20;103178.78;;;-0.84;100.00
62418;BME280;48456;54.242;10.280;2023-02-04T03:53:46;103179.84;;;-0.82;100.00
62418;BME280;48456;54.242;10.280;2023-02-04T03:56:13;103197.00;;;-0.84;100.00
62418;BME280;48456;54.242;10.280;2023-02-04T03:58:39;103204.78;;;-0.73;100.00
62418;BME280;48456;54.242;10.280;2023-02-04T04:01:05;103215.91;;;-0.64;100.00
62418;BME280;48456;54.242;10.280;2023-02-04T04:03:32;103219.66;;;-0.60;100.00
62418;BME280;48456;54.242;10.280;2023-02-04T04:05:58;103223.16;;;-0.60;100.00
62418;BME280;48456;54.242;10.280;2023-02-04T04:08:24;103233.06;;;-0.66;100.00
62418;BME280;48456;54.242;10.280;2023-02-04T04:10:51;103244.28;;;-0.77;100.00
62418;BME280;48456;54.242;10.280;2023-02-04T04:13:17;103239.88;;;-0.89;100.00
62418;BME280;48456;54.242;10.280;2023-02-04T04:15:43;103246.81;;;-1.00;100.00
62418;BME280;48456;54.242;10.280;2023-02-04T04:18:09;103249.44;;;-1.10;100.00
62418;BME280;48456;54.242;10.280;2023-02-04T04:20:36;103259.94;;;-1.19;100.00
62418;BME280;48456;54.242;10.280;2023-02-04T04:23:02;103259.19;;;-1.28;100.00
62418;BME280;48456;54.242;10.280;2023-02-04T04:25:28;103260.06;;;-1.28;100.00
62418;BME280;48456;54.242;10.280;2023-02-04T04:27:55;103248.25;;;-1.35;100.00
62418;BME280;48456;54.242;10.280;2023-02-04T04:30:21;103246.19;;;-1.39;100.00
62418;BME280;48456;54.242;10.280;2023-02-04T04:32:47;103252.28;;;-1.38;100.00
62418;BME280;48456;54.242;10.280;2023-02-04T04:35:14;103243.34;;;-1.42;100.00
62418;BME280;48456;54.242;10.280;2023-02-04T04:37:40;103252.81;;;-1.42;100.00
62418;BME280;48456;54.242;10.280;2023-02-04T04:40:08;103263.59;;;-1.38;100.00
62418;BME280;48456;54.242;10.280;2023-02-04T04:42:34;103269.44;;;-1.30;100.00
62418;BME280;48456;54.242;10.280;2023-02-04T04:45:01;103266.44;;;-1.24;100.00
62418;BME280;48456;54.242;10.280;2023-02-04T04:47:28;103261.13;;;-1.26;100.00
62418;BME280;48456;54.242;10.280;2023-02-04T04:49:54;103260.34;;;-1.25;100.00
62418;BME280;48456;54.242;10.280;2023-02-04T04:52:20;103262.66;;;-1.28;100.00
62418;BME280;48456;54.242;10.280;2023-02-04T04:54:47;103270.34;;;-1.29;100.00
62418;BME280;48456;54.242;10.280;2023-02-04T04:57:13;103268.66;;;-1.39;100.00
62418;BME280;48456;54.242;10.280;2023-02-04T04:59:39;103272.94;;;-1.50;100.00
62418;BME280;48456;54.242;10.280;2023-02-04T05:02:06;103279.44;;;-1.55;100.00
62418;BME280;48456;54.242;10.280;2023-02-04T05:04:32;103290.44;;;-1.58;100.00
62418;BME280;48456;54.242;10.280;2023-02-04T05:06:58;103287.97;;;-1.57;100.00
62418;BME280;48456;54.242;10.280;2023-02-04T05:09:25;103297.19;;;-1.60;100.00
62418;BME280;48456;54.242;10.280;2023-02-04T05:11:51;103312.13;;;-1.58;100.00
62418;BME280;48456;54.242;10.280;2023-02-04T05:14:18;103316.03;;;-1.52;100.00
62418;BME280;48456;54.242;10.280;2023-02-04T05:16:44;103317.31;;;-1.47;100.00
62418;BME280;48456;54.242;10.280;2023-02-04T05:19:10;103335.25;;;-1.40;100.00
62418;BME280;48456;54.242;10.280;2023-02-04T05:21:37;103338.25;;;-1.35;100.00
62418;BME280;48456;54.242;10.280;2023-02-04T05:24:03;103349.94;;;-1.30;100.00
62418;BME280;48456;54.242;10.280;2023-02-04T05:26:31;103341.75;;;-1.35;100.00
62418;BME280;48456;54.242;10.280;2023-02-04T05:28:58;103343.69;;;-1.42;100.00
62418;BME280;48456;54.242;10.280;2023-02-04T05:31:27;103343.69;;;-1.53;100.00
62418;BME280;48456;54.242;10.280;2023-02-04T05:33:54;103348.06;;;-1.62;100.00
62418;BME280;48456;54.242;10.280;2023-02-04T05:36:20;103362.19;;;-1.69;100.00
62418;BME280;48456;54.242;10.280;2023-02-04T05:38:47;103361.03;;;-1.73;100.00
62418;BME280;48456;54.242;10.280;2023-02-04T05:41:13;103366.50;;;-1.70;100.00
62418;BME280;48456;54.242;10.280;2023-02-04T05:43:40;103380.22;;;-1.71;100.00
62418;BME280;48456;54.242;10.280;2023-02-04T05:46:06;103375.03;;;-1.71;100.00
62418;BME280;48456;54.242;10.280;2023-02-04T05:48:32;103382.56;;;-1.74;100.00
62418;BME280;48456;54.242;10.280;2023-02-04T05:50:59;103391.00;;;-1.76;100.00
62418;BME280;48456;54.242;10.280;2023-02-04T05:53:25;103391.34;;;-1.82;100.00
62418;BME280;48456;54.242;10.280;2023-02-04T05:55:51;103386.66;;;-1.86;100.00
62418;BME280;48456;54.242;10.280;2023-02-04T05:58:18;103393.38;;;-1.88;100.00
62418;BME280;48456;54.242;10.280;2023-02-04T06:00:44;103392.72;;;-1.96;100.00
62418;BME280;48456;54.242;10.280;2023-02-04T06:03:11;103396.59;;;-2.01;100.00
62418;BME280;48456;54.242;10.280;2023-02-04T06:05:39;103400.19;;;-2.10;100.00
62418;BME280;48456;54.242;10.280;2023-02-04T06:08:05;103407.53;;;-2.14;100.00
62418;BME280;48456;54.242;10.280;2023-02-04T06:10:32;103418.06;;;-2.13;100.00
62418;BME280;48456;54.242;10.280;2023-02-04T06:12:59;103420.38;;;-2.16;100.00
62418;BME280;48456;54.242;10.280;2023-02-04T06:15:25;103427.41;;;-2.15;100.00
62418;BME280;48456;54.242;10.280;2023-02-04T06:17:51;103440.06;;;-2.18;100.00
62418;BME280;48456;54.242;10.280;2023-02-04T06:20:18;103438.75;;;-2.23;100.00
62418;BME280;48456;54.242;10.280;2023-02-04T06:22:44;103442.09;;;-2.24;100.00
62418;BME280;48456;54.242;10.280;2023-02-04T06:25:12;103448.97;;;-2.25;100.00
62418;BME280;48456;54.242;10.280;2023-02-04T06:27:39;103447.66;;;-2.30;100.00
62418;BME280;48456;54.242;10.280;2023-02-04T06:30:05;103456.66;;;-2.35;100.00
62418;BME280;48456;54.242;10.280;2023-02-04T06:32:32;103466.41;;;-2.32;100.00
62418;BME280;48456;54.242;10.280;2023-02-04T06:34:58;103475.41;;;-2.29;100.00
62418;BME280;48456;54.242;10.280;2023-02-04T06:37:24;103470.50;;;-2.26;100.00
62418;BME280;48456;54.242;10.280;2023-02-04T06:39:51;103470.38;;;-2.27;100.00
62418;BME280;48456;54.242;10.280;2023-02-04T06:42:19;103470.50;;;-2.26;100.00
62418;BME280;48456;54.242;10.280;2023-02-04T06:44:46;103467.91;;;-2.26;100.00
62418;BME280;48456;54.242;10.280;2023-02-04T06:47:12;103464.59;;;-2.33;100.00
62418;BME280;48456;54.242;10.280;2023-02-04T06:49:38;103463.22;;;-2.30;100.00
62418;BME280;48456;54.242;10.280;2023-02-04T06:52:05;103475.56;;;-2.27;100.00
62418;BME280;48456;54.242;10.280;2023-02-04T06:54:31;103477.50;;;-2.25;100.00
62418;BME280;48456;54.242;10.280;2023-02-04T06:56:57;103483.72;;;-2.23;100.00
62418;BME280;48456;54.242;10.280;2023-02-04T06:59:35;103491.66;;;-2.21;100.00
62418;BME280;48456;54.242;10.280;2023-02-04T07:02:02;103496.06;;;-2.20;100.00
62418;BME280;48456;54.242;10.280;2023-02-04T07:04:29;103501.41;;;-2.18;100.00
62418;BME280;48456;54.242;10.280;2023-02-04T07:06:55;103505.81;;;-2.17;100.00
62418;BME280;48456;54.242;10.280;2023-02-04T07:09:22;103504.13;;;-2.17;100.00
62418;BME280;48456;54.242;10.280;2023-02-04T07:11:48;103512.06;;;-2.15;100.00
62418;BME280;48456;54.242;10.280;2023-02-04T07:14:14;103515.44;;;-2.16;100.00
62418;BME280;48456;54.242;10.280;2023-02-04T07:16:41;103530.69;;;-2.19;100.00
62418;BME280;48456;54.242;10.280;2023-02-04T07:19:07;103535.88;;;-2.19;100.00
62418;BME280;48456;54.242;10.280;2023-02-04T07:21:33;103533.59;;;-2.16;100.00
62418;BME280;48456;54.242;10.280;2023-02-04T07:24:00;103540.88;;;-2.12;100.00
62418;BME280;48456;54.242;10.280;2023-02-04T07:26:26;103546.31;;;-2.09;100.00
62418;BME280;48456;54.242;10.280;2023-02-04T07:28:53;103550.63;;;-2.10;100.00
62418;BME280;48456;54.242;10.280;2023-02-04T07:31:19;103548.91;;;-2.09;100.00
62418;BME280;48456;54.242;10.280;2023-02-04T07:33:46;103552.59;;;-2.07;100.00
62418;BME280;48456;54.242;10.280;2023-02-04T07:36:12;103553.50;;;-2.06;100.00
62418;BME280;48456;54.242;10.280;2023-02-04T07:38:40;103558.81;;;-2.05;100.00
62418;BME280;48456;54.242;10.280;2023-02-04T07:41:06;103561.41;;;-2.05;100.00
62418;BME280;48456;54.242;10.280;2023-02-04T07:43:33;103570.31;;;-2.12;100.00
62418;BME280;48456;54.242;10.280;2023-02-04T07:45:59;103569.97;;;-2.06;100.00
62418;BME280;48456;54.242;10.280;2023-02-04T07:48:26;103568.00;;;-2.09;100.00
62418;BME280;48456;54.242;10.280;2023-02-04T07:50:52;103571.66;;;-2.06;100.00
62418;BME280;48456;54.242;10.280;2023-02-04T07:53:18;103579.44;;;-2.06;100.00
62418;BME280;48456;54.242;10.280;2023-02-04T07:55:45;103583.09;;;-2.04;100.00
62418;BME280;48456;54.242;10.280;2023-02-04T07:58:11;103575.44;;;-2.03;100.00
62418;BME280;48456;54.242;10.280;2023-02-04T08:00:37;103586.13;;;-2.00;100.00
62418;BME280;48456;54.242;10.280;2023-02-04T08:03:04;103578.34;;;-2.00;100.00
62418;BME280;48456;54.242;10.280;2023-02-04T08:05:30;103587.94;;;-1.99;100.00
62418;BME280;48456;54.242;10.280;2023-02-04T08:07:56;103591.16;;;-2.01;100.00
62418;BME280;48456;54.242;10.280;2023-02-04T08:10:23;103589.59;;;-1.99;100.00
62418;BME280;48456;54.242;10.280;2023-02-04T08:12:50;103599.34;;;-1.97;100.00
62418;BME280;48456;54.242;10.280;2023-02-04T08:15:16;103594.31;;;-1.95;100.00
62418;BME280;48456;54.242;10.280;2023-02-04T08:17:42;103596.13;;;-1.94;100.00
62418;BME280;48456;54.242;10.280;2023-02-04T08:20:09;103599.63;;;-1.93;100.00
62418;BME280;48456;54.242;10.280;2023-02-04T08:22:36;103602.53;;;-1.90;100.00
62418;BME280;48456;54.242;10.280;2023-02-04T08:25:02;103606.44;;;-1.85;100.00
62418;BME280;48456;54.242;10.280;2023-02-04T08:27:30;103611.59;;;-1.76;100.00
62418;BME280;48456;54.242;10.280;2023-02-04T08:29:56;103627.84;;;-1.68;100.00
62418;BME280;48456;54.242;10.280;2023-02-04T08:32:23;103629.63;;;-1.59;100.00
62418;BME280;48456;54.242;10.280;2023-02-04T08:34:49;103628.50;;;-1.52;100.00
62418;BME280;48456;54.242;10.280;2023-02-04T08:37:15;103634.22;;;-1.46;100.00
62418;BME280;48456;54.242;10.280;2023-02-04T08:39:42;103640.50;;;-1.44;100.00
62418;BME280;48456;54.242;10.280;2023-02-04T08:42:11;103635.59;;;-1.40;100.00
62418;BME280;48456;54.242;10.280;2023-02-04T08:44:38;103638.28;;;-1.39;100.00
62418;BME280;48456;54.242;10.280;2023-02-04T08:47:04;103633.09;;;-1.39;100.00
62418;BME280;48456;54.242;10.280;2023-02-04T08:49:31;103635.09;;;-1.36;100.00
62418;BME280;48456;54.242;10.280;2023-02-04T08:51:57;103633.03;;;-1.30;100.00
62418;BME280;48456;54.242;10.280;2023-02-04T08:54:23;103629.16;;;-1.25;100.00
62418;BME280;48456;54.242;10.280;2023-02-04T08:56:51;103622.69;;;-1.20;100.00
62418;BME280;48456;54.242;10.280;2023-02-04T08:59:17;103636.53;;;-1.10;100.00
62418;BME280;48456;54.242;10.280;2023-02-04T09:01:44;103641.75;;;-1.00;100.00
62418;BME280;48456;54.242;10.280;2023-02-04T09:04:16;103646.09;;;-0.90;100.00
62418;BME280;48456;54.242;10.280;2023-02-04T09:06:42;103654.47;;;-0.73;100.00
62418;BME280;48456;54.242;10.280;2023-02-04T09:09:09;103648.78;;;-0.59;100.00
62418;BME280;48456;54.242;10.280;2023-02-04T09:11:35;103661.34;;;-0.44;100.00
62418;BME280;48456;54.242;10.280;2023-02-04T09:14:02;103670.84;;;-0.34;100.00
62418;BME280;48456;54.242;10.280;2023-02-04T09:16:28;103666.81;;;-0.31;100.00
62418;BME280;48456;54.242;10.280;2023-02-04T09:18:54;103665.03;;;-0.21;100.00
62418;BME280;48456;54.242;10.280;2023-02-04T09:21:21;103664.91;;;-0.12;100.00
62418;BME280;48456;54.242;10.280;2023-02-04T09:23:47;103664.63;;;-0.05;100.00
62418;BME280;48456;54.242;10.280;2023-02-04T09:26:14;103669.50;;;0.11;100.00
62418;BME280;48456;54.242;10.280;2023-02-04T09:28:40;103662.06;;;0.26;100.00
62418;BME280;48456;54.242;10.280;2023-02-04T09:31:06;103674.16;;;0.36;100.00
62418;BME280;48456;54.242;10.280;2023-02-04T09:33:33;103672.06;;;0.52;100.00
62418;BME280;48456;54.242;10.280;2023-02-04T09:36:00;103655.91;;;0.57;100.00
62418;BME280;48456;54.242;10.280;2023-02-04T09:38:26;103660.19;;;0.67;100.00
62418;BME280;48456;54.242;10.280;2023-02-04T09:40:54;103665.47;;;0.78;100.00
62418;BME280;48456;54.242;10.280;2023-02-04T09:43:21;103665.59;;;0.90;100.00
62418;BME280;48456;54.242;10.280;2023-02-04T09:45:51;103674.84;;;0.97;100.00
62418;BME280;48456;54.242;10.280;2023-02-04T09:48:18;103677.56;;;0.99;100.00
62418;BME280;48456;54.242;10.280;2023-02-04T09:50:46;103679.38;;;1.00;100.00
62418;BME280;48456;54.242;10.280;2023-02-04T09:53:13;103682.53;;;0.96;100.00
62418;BME280;48456;54.242;10.280;2023-02-04T09:55:42;103677.97;;;0.93;100.00
62418;BME280;48456;54.242;10.280;2023-02-04T09:58:15;103677.69;;;1.00;100.00
62418;BME280;48456;54.242;10.280;2023-02-04T10:00:43;103673.22;;;1.10;100.00
62418;BME280;48456;54.242;10.280;2023-02-04T10:03:17;103676.63;;;1.09;100.00
62418;BME280;48456;54.242;10.280;2023-02-04T10:05:44;103667.50;;;1.03;100.00
62418;BME280;48456;54.242;10.280;2023-02-04T10:08:12;103673.50;;;1.02;100.00
62418;BME280;48456;54.242;10.280;2023-02-04T10:10:39;103686.53;;;1.02;100.00
62418;BME280;48456;54.242;10.280;2023-02-04T10:13:07;103685.09;;;1.06;100.00
62418;BME280;48456;54.242;10.280;2023-02-04T10:15:39;103683.88;;;1.13;100.00
62418;BME280;48456;54.242;10.280;2023-02-04T10:18:06;103682.94;;;1.23;100.00
62418;BME280;48456;54.242;10.280;2023-02-04T10:20:33;103688.00;;;1.32;100.00
62418;BME280;48456;54.242;10.280;2023-02-04T10:22:59;103685.22;;;1.40;100.00
62418;BME280;48456;54.242;10.280;2023-02-04T10:25:26;103687.72;;;1.61;100.00
62418;BME280;48456;54.242;10.280;2023-02-04T10:27:56;103683.75;;;1.89;100.00
62418;BME280;48456;54.242;10.280;2023-02-04T10:30:27;103684.25;;;1.95;100.00
62418;BME280;48456;54.242;10.280;2023-02-04T10:32:53;103691.72;;;1.90;100.00
62418;BME280;48456;54.242;10.280;2023-02-04T10:35:20;103692.50;;;1.67;100.00
62418;BME280;48456;54.242;10.280;2023-02-04T10:37:47;103695.78;;;1.42;100.00
62418;BME280;48456;54.242;10.280;2023-02-04T10:40:27;103691.63;;;1.34;100.00
62418;BME280;48456;54.242;10.280;2023-02-04T10:42:54;103694.69;;;1.50;100.00
62418;BME280;48456;54.242;10.280;2023-02-04T10:45:24;103688.34;;;1.69;100.00
62418;BME280;48456;54.242;10.280;2023-02-04T10:47:52;103685.19;;;1.73;100.00
62418;BME280;48456;54.242;10.280;2023-02-04T10:50:25;103699.25;;;1.98;100.00
62418;BME280;48456;54.242;10.280;2023-02-04T10:52:53;103696.38;;;2.17;100.00
62418;BME280;48456;54.242;10.280;2023-02-04T10:55:40;103682.63;;;2.19;100.00
62418;BME280;48456;54.242;10.280;2023-02-04T10:58:08;103687.31;;;2.24;100.00
62418;BME280;48456;54.242;10.280;2023-02-04T11:00:35;103689.25;;;2.38;100.00
62418;BME280;48456;54.242;10.280;2023-02-04T11:03:24;103688.25;;;2.36;100.00
62418;BME280;48456;54.242;10.280;2023-02-04T11:05:49;103696.25;;;2.15;100.00
62418;BME280;48456;54.242;10.280;2023-02-04T11:08:20;103692.97;;;2.18;100.00
62418;BME280;48456;54.242;10.280;2023-02-04T11:10:54;103702.53;;;2.29;100.00
62418;BME280;48456;54.242;10.280;2023-02-04T11:13:22;103701.88;;;2.32;100.00
62418;BME280;48456;54.242;10.280;2023-02-04T11:15:49;103693.63;;;2.15;100.00
62418;BME280;48456;54.242;10.280;2023-02-04T11:20:50;103686.44;;;2.01;100.00
62418;BME280;48456;54.242;10.280;2023-02-04T11:26:12;103684.00;;;2.26;100.00
62418;BME280;48456;54.242;10.280;2023-02-04T11:28:46;103691.16;;;2.87;100.00
62418;BME280;48456;54.242;10.280;2023-02-04T11:33:45;103689.16;;;4.46;100.00
62418;BME280;48456;54.242;10.280;2023-02-04T11:36:13;103689.59;;;4.93;100.00
62418;BME280;48456;54.242;10.280;2023-02-04T11:38:44;103687.59;;;5.16;100.00
62418;BME280;48456;54.242;10.280;2023-02-04T11:41:22;103688.22;;;5.12;100.00
62418;BME280;48456;54.242;10.280;2023-02-04T11:43:50;103689.94;;;4.84;100.00
62418;BME280;48456;54.242;10.280;2023-02-04T11:46:17;103696.03;;;4.44;100.00
62418;BME280;48456;54.242;10.280;2023-02-04T11:48:44;103693.09;;;3.88;100.00
62418;BME280;48456;54.242;10.280;2023-02-04T11:51:11;103695.41;;;3.46;100.00
62418;BME280;48456;54.242;10.280;2023-02-04T11:53:39;103695.56;;;3.24;100.00
62418;BME280;48456;54.242;10.280;2023-02-04T11:56:05;103694.53;;;3.10;100.00
62418;BME280;48456;54.242;10.280;2023-02-04T11:58:32;103694.34;;;3.07;100.00
62418;BME280;48456;54.242;10.280;2023-02-04T12:00:58;103692.28;;;3.03;100.00
62418;BME280;48456;54.242;10.280;2023-02-04T12:03:26;103692.38;;;2.92;100.00
62418;BME280;48456;54.242;10.280;2023-02-04T12:05:55;103690.03;;;2.83;100.00
62418;BME280;48456;54.242;10.280;2023-02-04T12:11:31;103691.47;;;2.80;100.00
62418;BME280;48456;54.242;10.280;2023-02-04T12:13:47;103690.44;;;2.66;100.00
62418;BME280;48456;54.242;10.280;2023-02-04T12:16:14;103699.63;;;2.49;100.00
62418;BME280;48456;54.242;10.280;2023-02-04T12:18:41;103702.25;;;2.49;100.00
62418;BME280;48456;54.242;10.280;2023-02-04T12:21:07;103702.38;;;2.62;100.00
62418;BME280;48456;54.242;10.280;2023-02-04T12:23:33;103695.56;;;2.76;100.00
62418;BME280;48456;54.242;10.280;2023-02-04T12:26:00;103701.84;;;2.90;100.00
62418;BME280;48456;54.242;10.280;2023-02-04T12:28:26;103705.94;;;2.98;100.00
62418;BME280;48456;54.242;10.280;2023-02-04T12:30:55;103708.75;;;3.02;100.00
62418;BME280;48456;54.242;10.280;2023-02-04T12:33:22;103714.00;;;3.14;100.00
62418;BME280;48456;54.242;10.280;2023-02-04T12:35:48;103718.75;;;3.19;100.00
62418;BME280;48456;54.242;10.280;2023-02-04T12:38:15;103722.66;;;3.24;100.00
62418;BME280;48456;54.242;10.280;2023-02-04T12:40:41;103724.81;;;3.30;100.00
62418;BME280;48456;54.242;10.280;2023-02-04T12:43:07;103729.03;;;3.16;100.00
62418;BME280;48456;54.242;10.280;2023-02-04T12:45:34;103737.41;;;3.24;100.00
62418;BME280;48456;54.242;10.280;2023-02-04T12:48:00;103737.88;;;3.42;100.00